This is the latest recevied weather packets stored in our database for station/object S50APT-10. If no packets are shown the sender has not sent any weather packets the latest 10 day(s).
| Time | Temp. | Humidity | Pressure | Rain* | Wind** | Luminosity | Snow |
|---|---|---|---|---|---|---|---|
| 1778102476 | 15° C | 65% | 1013.8 hPa | - | - | - | - |
| 1778101549 | 15° C | 65% | 1013.8 hPa | - | - | - | - |
| 1778100645 | 15.56° C | 62% | 1013.7 hPa | - | - | - | - |
| 1778100638 | 15.56° C | 62% | 1013.7 hPa | - | - | - | - |
| 1778099728 | 15° C | 63% | 1013.6 hPa | - | - | - | - |
| 1778098818 | 15.56° C | 62% | 1013.5 hPa | - | - | - | - |
| 1778097911 | 16.11° C | 60% | 1013.5 hPa | - | - | - | - |
| 1778096997 | 15.56° C | 62% | 1013.4 hPa | - | - | - | - |
| 1778096086 | 15° C | 63% | 1013.2 hPa | - | - | - | - |
| 1778094255 | 15.56° C | 62% | 1012.7 hPa | - | - | - | - |
| 1778092424 | 16.11° C | 61% | 1012.6 hPa | - | - | - | - |
| 1778091513 | 16.11° C | 61% | 1012.5 hPa | - | - | - | - |
| 1778090613 | 16.67° C | 60% | 1012.2 hPa | - | - | - | - |
| 1778089700 | 16.67° C | 60% | 1012.2 hPa | - | - | - | - |
| 1778088795 | 17.22° C | 59% | 1012.1 hPa | - | - | - | - |
| 1778087895 | 17.78° C | 58% | 1012.1 hPa | - | - | - | - |
| 1778086994 | 18.89° C | 54% | 1012.2 hPa | - | - | - | - |
| 1778086093 | 20° C | 53% | 1012.2 hPa | - | - | - | - |
| 1778085193 | 18.33° C | 56% | 1012.3 hPa | - | - | - | - |
| 1778084904 | 18.33° C | 56% | 1012.5 hPa | - | - | - | - |
| 1778084791 | 18.33° C | 56% | 1012.5 hPa | - | - | - | - |
| 1778084292 | 18.33° C | 56% | 1012.5 hPa | - | - | - | - |
| 1778083392 | 17.78° C | 57% | 1012.5 hPa | - | - | - | - |
| 1778082491 | 18.89° C | 54% | 1012.6 hPa | - | - | - | - |
| 1778081591 | 18.89° C | 55% | 1012.6 hPa | - | - | - | - |
* Rain since midnight (hover to see other rain measurements)
** Current wind speed in m/s (hover to see current wind gust speed)